This is the latest recevied weather packets stored in our database for station/object EA6AMI-5. If no packets are shown the sender has not sent any weather packets the latest 10 day(s).
| Time | Temp. | Humidity | Pressure | Rain* | Wind** | Luminosity | Snow |
|---|---|---|---|---|---|---|---|
| 1777562823 | 23.33° C | 63% | 1015.4 hPa | 0 mm | - | 131 W/m² | - |
| 1777562283 | 24.44° C | 61% | 1015.4 hPa | 0 mm | - | 245 W/m² | - |
| 1777561743 | 23.89° C | 62% | 1015.4 hPa | 0 mm | - | 266 W/m² | - |
| 1777561203 | 24.44° C | 61% | 1015.2 hPa | 0 mm | - | 209 W/m² | - |
| 1777560844 | 23.89° C | 61% | 1015.6 hPa | 0 mm | - | 272 W/m² | - |
| 1777560304 | 23.89° C | 61% | 1015.7 hPa | 0 mm | - | 186 W/m² | - |
| 1777559763 | 24.44° C | 60% | 1015.5 hPa | 0 mm | - | 236 W/m² | - |
| 1777559224 | 25° C | 59% | 1015.5 hPa | 0 mm | - | 216 W/m² | - |
| 1777558683 | 24.44° C | 58% | 1015.3 hPa | 0 mm | - | 630 W/m² | - |
| 1777558144 | 23.89° C | 59% | 1015.6 hPa | 0 mm | - | 518 W/m² | - |
| 1777557604 | 24.44° C | 59% | 1015.6 hPa | 0 mm | - | 728 W/m² | - |
| 1777557243 | 23.89° C | 60% | 1015.8 hPa | 0 mm | - | 682 W/m² | - |
| 1777556704 | 23.33° C | 61% | 1015.8 hPa | 0 mm | - | 702 W/m² | - |
| 1777556164 | 23.33° C | 61% | 1015.6 hPa | 0 mm | - | 410 W/m² | - |
| 1777555624 | 23.33° C | 61% | 1015.6 hPa | 0 mm | - | 502 W/m² | - |
| 1777555084 | 23.89° C | 61% | 1015.7 hPa | 0 mm | - | 846 W/m² | - |
| 1777554544 | 23.33° C | 61% | 1015.8 hPa | 0 mm | - | 581 W/m² | - |
| 1777554003 | 23.89° C | 60% | 1015.6 hPa | 0 mm | - | 335 W/m² | - |
| 1777553644 | 23.89° C | 61% | 1015.7 hPa | 0 mm | - | 925 W/m² | - |
| 1777553104 | 23.89° C | 59% | 1015.7 hPa | 0 mm | - | 798 W/m² | - |
| 1777552564 | 25° C | 53% | 1015.7 hPa | 0 mm | - | 285 W/m² | - |
| 1777552023 | 25.56° C | 53% | 1015.6 hPa | 0 mm | - | 256 W/m² | - |
| 1777551484 | 25° C | 53% | 1015.4 hPa | 0 mm | - | 218 W/m² | - |
| 1777550943 | 24.44° C | 56% | 1015.8 hPa | 0 mm | - | 403 W/m² | - |
| 1777550403 | 24.44° C | 56% | 1015.6 hPa | 0 mm | - | 907 W/m² | - |
* Rain latest hour (hover to see other rain measurements)
** Current wind speed in m/s (hover to see current wind gust speed)